KJAC

Jackson Hole Airport

Jackson, Wyoming, USA
METAR KJAC 212256Z 21010KT 8SM CLR 25/M01 A3017 RMK RWY 19 IN USE
Observed Flight Rules
Aug-21 @ 22:56 UTC (48 minutes ago) Visual Flight Rules
Wind Visibility Clouds
210° at 10 knots 8 miles
  • Clear skies
Temperatures Readings
Current 25°C / 77°F
Dewpoint -1°C / 30°F
Humidity 18%
Altimeter 30.17" Hg
Pressure 1022 hPa
Elevation 1961
METAR KJAC 212256Z 21010KT 8SM CLR 25/M01 A3017 RMK RWY 19 IN USE
Observed Flight Rules
Aug-21 @ 22:56 UTC
(48 minutes ago)
VFR
Wind Visibility
210° at 10 knots 8 miles
Clouds
  • Clear skies
Temperature Dewpoint
25°C / 77°F -1°C / 30°F
Humidity Altimeter Pressure
18% 30.17" Hg 1022 hPa